Yakima, WA (98907)

7:50 AM PDT on July 27, 2016 (GMT -0700)
APRSWXNET | | Change Station

Elev 1099 ft 46.58 °N, 120.56 °W | Updated 24 minutes ago

Clear
Clear
72 °F
Feels Like 77 °F
N
1
Wind Variable Wind from SE
Gusts 6.0 mph

Today
High -- | Low -- °F
--% Chance of Precip.
Yesterday
High -- | Low -- °F
Precip. -- in
Pressure 30.02 in
Visibility 10.0 miles
Clouds Clear
Heat Index 77 °F
Dew Point 55 °F
Humidity 55%
Rainfall in
Snow Depth Not available.
5:37 AM 8:38 PM
Last Quarter, 42% visible
METAR KYKM 271353Z 32009KT 10SM CLR 23/11 A3005 RMK AO2 SLP165 T02280111
Pressure 30.02 in
Visibility 10.0 miles
Clouds Clear
Heat Index 77 °F
Dew Point 55 °F
Humidity 55%
Rainfall in
Snow Depth Not available.
5:37 AM 8:38 PM
Last Quarter, 42% visible
METAR KYKM 271353Z 32009KT 10SM CLR 23/11 A3005 RMK AO2 SLP165 T02280111

10-Day Weather Forecast

Almanac

Astronomy

Jul. 27, 2016 Rise Set
Actual Time
Civil Twilight
Nautical Twilight
Astronomical Twilight
Moon
Length of Visible Light
Length of Day
Tomorrow will be .
, % of the Moon is Illuminated

Today's Extremes

State Highs State Lows

Community

WunderPhotos

Upload Photos

1,927,847 photos uploaded!

WunderBlog® & News

Nearby

Air Quality

  Air Quality AQ Index Pollutant
Not available.

Snow Depth

Station Depth Elevation

Earthquake Activity

City Distance Mag. Time & Date
Minimum magnitude displayed is 2.5.

Coastal Water Temperatures

Place Temperature

Stations

Nearby Weather Stations

Station Location Temp. Windchill Dew Point Humidity Wind Precip. Elev Updated Type
                   

Watches & Warnings

There are currently no watches in effect.